sensor_id;sensor_type;location;lat;lon;timestamp;P1;durP1;ratioP1;P2;durP2;ratioP2
1721;SDS011;858;53.190;8.596;2023-05-14T00:00:27;8.80;;;7.80;;
1721;SDS011;858;53.190;8.596;2023-05-14T00:02:53;7.97;;;7.27;;
1721;SDS011;858;53.190;8.596;2023-05-14T00:05:19;8.13;;;7.37;;
1721;SDS011;858;53.190;8.596;2023-05-14T00:07:46;8.50;;;7.67;;
1721;SDS011;858;53.190;8.596;2023-05-14T00:10:13;7.83;;;7.07;;
1721;SDS011;858;53.190;8.596;2023-05-14T00:12:41;7.33;;;6.63;;
1721;SDS011;858;53.190;8.596;2023-05-14T00:15:08;8.50;;;7.70;;
1721;SDS011;858;53.190;8.596;2023-05-14T00:17:35;8.80;;;8.00;;
1721;SDS011;858;53.190;8.596;2023-05-14T00:20:01;9.77;;;8.87;;
1721;SDS011;858;53.190;8.596;2023-05-14T00:22:31;8.00;;;6.77;;
1721;SDS011;858;53.190;8.596;2023-05-14T00:24:57;8.47;;;7.60;;
1721;SDS011;858;53.190;8.596;2023-05-14T00:27:25;8.67;;;7.93;;
1721;SDS011;858;53.190;8.596;2023-05-14T00:29:51;7.90;;;7.00;;
1721;SDS011;858;53.190;8.596;2023-05-14T00:32:17;8.37;;;7.67;;
1721;SDS011;858;53.190;8.596;2023-05-14T00:34:43;8.40;;;7.60;;
1721;SDS011;858;53.190;8.596;2023-05-14T00:37:10;9.53;;;8.50;;
1721;SDS011;858;53.190;8.596;2023-05-14T00:39:36;11.03;;;8.40;;
1721;SDS011;858;53.190;8.596;2023-05-14T00:42:03;8.13;;;7.33;;
1721;SDS011;858;53.190;8.596;2023-05-14T00:44:30;9.87;;;8.83;;
1721;SDS011;858;53.190;8.596;2023-05-14T00:46:57;9.03;;;8.13;;
1721;SDS011;858;53.190;8.596;2023-05-14T00:49:23;9.47;;;8.50;;
1721;SDS011;858;53.190;8.596;2023-05-14T00:51:50;12.37;;;8.00;;
1721;SDS011;858;53.190;8.596;2023-05-14T00:54:18;8.30;;;7.50;;
1721;SDS011;858;53.190;8.596;2023-05-14T00:56:45;9.17;;;8.27;;
1721;SDS011;858;53.190;8.596;2023-05-14T00:59:12;9.23;;;7.70;;
1721;SDS011;858;53.190;8.596;2023-05-14T01:01:40;8.90;;;7.37;;
1721;SDS011;858;53.190;8.596;2023-05-14T01:04:06;8.80;;;8.10;;
1721;SDS011;858;53.190;8.596;2023-05-14T01:06:34;9.10;;;8.23;;
1721;SDS011;858;53.190;8.596;2023-05-14T01:09:04;8.53;;;7.80;;
1721;SDS011;858;53.190;8.596;2023-05-14T01:11:35;9.60;;;8.57;;
1721;SDS011;858;53.190;8.596;2023-05-14T01:14:07;11.80;;;8.80;;
1721;SDS011;858;53.190;8.596;2023-05-14T01:16:39;11.33;;;10.23;;
1721;SDS011;858;53.190;8.596;2023-05-14T01:19:06;9.87;;;8.87;;
1721;SDS011;858;53.190;8.596;2023-05-14T01:21:37;12.13;;;9.50;;
1721;SDS011;858;53.190;8.596;2023-05-14T01:24:05;9.63;;;8.77;;
1721;SDS011;858;53.190;8.596;2023-05-14T01:26:31;8.80;;;8.03;;
1721;SDS011;858;53.190;8.596;2023-05-14T01:28:59;11.00;;;9.90;;
1721;SDS011;858;53.190;8.596;2023-05-14T01:31:26;10.00;;;9.10;;
1721;SDS011;858;53.190;8.596;2023-05-14T01:33:56;9.43;;;8.53;;
1721;SDS011;858;53.190;8.596;2023-05-14T01:36:23;9.87;;;7.37;;
1721;SDS011;858;53.190;8.596;2023-05-14T01:38:51;10.70;;;9.60;;
1721;SDS011;858;53.190;8.596;2023-05-14T01:41:17;10.87;;;9.40;;
1721;SDS011;858;53.190;8.596;2023-05-14T01:43:45;10.30;;;9.30;;
1721;SDS011;858;53.190;8.596;2023-05-14T01:46:11;9.60;;;8.70;;
1721;SDS011;858;53.190;8.596;2023-05-14T01:48:38;15.67;;;10.53;;
1721;SDS011;858;53.190;8.596;2023-05-14T01:51:05;10.77;;;9.20;;
1721;SDS011;858;53.190;8.596;2023-05-14T01:53:31;9.70;;;8.80;;
1721;SDS011;858;53.190;8.596;2023-05-14T01:56:00;10.43;;;9.37;;
1721;SDS011;858;53.190;8.596;2023-05-14T01:58:26;10.50;;;9.70;;
1721;SDS011;858;53.190;8.596;2023-05-14T02:00:52;9.50;;;8.50;;
1721;SDS011;858;53.190;8.596;2023-05-14T02:03:19;9.27;;;8.37;;
1721;SDS011;858;53.190;8.596;2023-05-14T02:05:45;9.87;;;8.87;;
1721;SDS011;858;53.190;8.596;2023-05-14T02:08:13;10.10;;;8.73;;
1721;SDS011;858;53.190;8.596;2023-05-14T02:10:39;9.40;;;8.60;;
1721;SDS011;858;53.190;8.596;2023-05-14T02:13:07;9.87;;;9.00;;
1721;SDS011;858;53.190;8.596;2023-05-14T02:15:34;9.53;;;8.67;;
1721;SDS011;858;53.190;8.596;2023-05-14T02:18:00;9.67;;;8.77;;
1721;SDS011;858;53.190;8.596;2023-05-14T02:20:27;9.13;;;8.30;;
1721;SDS011;858;53.190;8.596;2023-05-14T02:22:53;9.93;;;9.10;;
1721;SDS011;858;53.190;8.596;2023-05-14T02:25:19;11.43;;;8.90;;
1721;SDS011;858;53.190;8.596;2023-05-14T02:27:46;12.60;;;10.23;;
1721;SDS011;858;53.190;8.596;2023-05-14T02:30:13;10.57;;;9.67;;
1721;SDS011;858;53.190;8.596;2023-05-14T02:32:40;10.87;;;9.87;;
1721;SDS011;858;53.190;8.596;2023-05-14T02:35:06;9.63;;;8.63;;
1721;SDS011;858;53.190;8.596;2023-05-14T02:37:33;15.20;;;9.87;;
1721;SDS011;858;53.190;8.596;2023-05-14T02:39:59;9.90;;;9.00;;
1721;SDS011;858;53.190;8.596;2023-05-14T02:42:26;9.93;;;9.10;;
1721;SDS011;858;53.190;8.596;2023-05-14T02:44:52;10.00;;;9.10;;
1721;SDS011;858;53.190;8.596;2023-05-14T02:47:20;9.23;;;8.43;;
1721;SDS011;858;53.190;8.596;2023-05-14T02:49:46;9.73;;;8.83;;
1721;SDS011;858;53.190;8.596;2023-05-14T02:52:12;11.13;;;9.30;;
1721;SDS011;858;53.190;8.596;2023-05-14T02:54:39;11.50;;;10.47;;
1721;SDS011;858;53.190;8.596;2023-05-14T02:57:05;11.70;;;10.07;;
1721;SDS011;858;53.190;8.596;2023-05-14T02:59:31;12.90;;;10.93;;
1721;SDS011;858;53.190;8.596;2023-05-14T03:01:58;13.00;;;10.63;;
1721;SDS011;858;53.190;8.596;2023-05-14T03:04:26;11.10;;;10.10;;
1721;SDS011;858;53.190;8.596;2023-05-14T03:06:53;10.93;;;9.77;;
1721;SDS011;858;53.190;8.596;2023-05-14T03:09:21;10.17;;;9.20;;
1721;SDS011;858;53.190;8.596;2023-05-14T03:11:47;11.30;;;10.20;;
1721;SDS011;858;53.190;8.596;2023-05-14T03:14:13;11.33;;;10.20;;
1721;SDS011;858;53.190;8.596;2023-05-14T03:16:42;11.00;;;10.00;;
1721;SDS011;858;53.190;8.596;2023-05-14T03:19:09;10.53;;;9.53;;
1721;SDS011;858;53.190;8.596;2023-05-14T03:21:36;14.80;;;10.10;;
1721;SDS011;858;53.190;8.596;2023-05-14T03:24:03;11.30;;;10.20;;
1721;SDS011;858;53.190;8.596;2023-05-14T03:26:29;12.13;;;10.47;;
1721;SDS011;858;53.190;8.596;2023-05-14T03:28:56;14.83;;;10.97;;
1721;SDS011;858;53.190;8.596;2023-05-14T03:31:23;14.03;;;11.60;;
1721;SDS011;858;53.190;8.596;2023-05-14T03:33:50;11.00;;;9.97;;
1721;SDS011;858;53.190;8.596;2023-05-14T03:36:16;13.23;;;11.83;;
1721;SDS011;858;53.190;8.596;2023-05-14T03:38:44;12.97;;;10.93;;
1721;SDS011;858;53.190;8.596;2023-05-14T03:41:11;14.00;;;10.47;;
1721;SDS011;858;53.190;8.596;2023-05-14T03:43:37;12.10;;;10.93;;
1721;SDS011;858;53.190;8.596;2023-05-14T03:46:05;12.53;;;11.23;;
1721;SDS011;858;53.190;8.596;2023-05-14T03:48:35;12.07;;;10.77;;
1721;SDS011;858;53.190;8.596;2023-05-14T03:51:01;11.87;;;10.03;;
1721;SDS011;858;53.190;8.596;2023-05-14T03:53:28;12.10;;;10.83;;
1721;SDS011;858;53.190;8.596;2023-05-14T03:55:56;11.23;;;10.20;;
1721;SDS011;858;53.190;8.596;2023-05-14T03:58:22;11.03;;;9.83;;
1721;SDS011;858;53.190;8.596;2023-05-14T04:00:50;12.43;;;11.13;;
1721;SDS011;858;53.190;8.596;2023-05-14T04:03:16;12.33;;;11.20;;
1721;SDS011;858;53.190;8.596;2023-05-14T04:05:43;12.50;;;11.30;;
1721;SDS011;858;53.190;8.596;2023-05-14T04:08:10;11.70;;;10.57;;
1721;SDS011;858;53.190;8.596;2023-05-14T04:10:37;12.23;;;10.97;;
1721;SDS011;858;53.190;8.596;2023-05-14T04:13:05;11.57;;;10.50;;
1721;SDS011;858;53.190;8.596;2023-05-14T04:15:32;13.03;;;11.20;;
1721;SDS011;858;53.190;8.596;2023-05-14T04:17:59;13.03;;;11.67;;
1721;SDS011;858;53.190;8.596;2023-05-14T04:20:26;12.27;;;11.07;;
1721;SDS011;858;53.190;8.596;2023-05-14T04:22:52;11.30;;;10.30;;
1721;SDS011;858;53.190;8.596;2023-05-14T04:25:18;11.93;;;10.93;;
1721;SDS011;858;53.190;8.596;2023-05-14T04:27:45;12.40;;;11.10;;
1721;SDS011;858;53.190;8.596;2023-05-14T04:30:13;13.27;;;11.17;;
1721;SDS011;858;53.190;8.596;2023-05-14T04:32:39;13.50;;;11.70;;
1721;SDS011;858;53.190;8.596;2023-05-14T04:35:07;12.20;;;10.90;;
1721;SDS011;858;53.190;8.596;2023-05-14T04:37:35;12.10;;;10.90;;
1721;SDS011;858;53.190;8.596;2023-05-14T04:40:02;12.90;;;11.03;;
1721;SDS011;858;53.190;8.596;2023-05-14T04:42:29;11.97;;;10.90;;
1721;SDS011;858;53.190;8.596;2023-05-14T04:44:56;18.17;;;11.70;;
1721;SDS011;858;53.190;8.596;2023-05-14T04:47:24;11.57;;;10.47;;
1721;SDS011;858;53.190;8.596;2023-05-14T04:49:51;12.73;;;11.60;;
1721;SDS011;858;53.190;8.596;2023-05-14T04:52:17;11.33;;;10.13;;
1721;SDS011;858;53.190;8.596;2023-05-14T04:54:44;12.30;;;11.13;;
1721;SDS011;858;53.190;8.596;2023-05-14T04:57:11;12.20;;;9.13;;
1721;SDS011;858;53.190;8.596;2023-05-14T04:59:37;11.73;;;10.53;;
1721;SDS011;858;53.190;8.596;2023-05-14T05:02:04;12.70;;;11.03;;
1721;SDS011;858;53.190;8.596;2023-05-14T05:04:34;11.83;;;10.60;;
1721;SDS011;858;53.190;8.596;2023-05-14T05:07:01;11.77;;;10.40;;
1721;SDS011;858;53.190;8.596;2023-05-14T05:09:27;11.57;;;10.47;;
1721;SDS011;858;53.190;8.596;2023-05-14T05:11:54;11.77;;;10.57;;
1721;SDS011;858;53.190;8.596;2023-05-14T05:14:20;12.00;;;10.87;;
1721;SDS011;858;53.190;8.596;2023-05-14T05:16:46;11.87;;;10.60;;
1721;SDS011;858;53.190;8.596;2023-05-14T05:19:13;15.17;;;11.97;;
1721;SDS011;858;53.190;8.596;2023-05-14T05:21:40;11.90;;;10.50;;
1721;SDS011;858;53.190;8.596;2023-05-14T05:24:07;10.37;;;9.37;;
1721;SDS011;858;53.190;8.596;2023-05-14T05:26:33;13.67;;;10.00;;
1721;SDS011;858;53.190;8.596;2023-05-14T05:29:01;13.03;;;10.00;;
1721;SDS011;858;53.190;8.596;2023-05-14T05:31:28;11.63;;;10.03;;
1721;SDS011;858;53.190;8.596;2023-05-14T05:33:55;11.33;;;10.33;;
1721;SDS011;858;53.190;8.596;2023-05-14T05:36:21;11.73;;;10.70;;
1721;SDS011;858;53.190;8.596;2023-05-14T05:38:49;12.03;;;10.90;;
1721;SDS011;858;53.190;8.596;2023-05-14T05:41:16;12.13;;;10.13;;
1721;SDS011;858;53.190;8.596;2023-05-14T05:43:43;10.97;;;9.90;;
1721;SDS011;858;53.190;8.596;2023-05-14T05:46:10;10.87;;;9.90;;
1721;SDS011;858;53.190;8.596;2023-05-14T05:48:37;11.13;;;10.13;;
1721;SDS011;858;53.190;8.596;2023-05-14T05:51:03;11.33;;;10.20;;
1721;SDS011;858;53.190;8.596;2023-05-14T05:53:31;11.27;;;10.17;;
1721;SDS011;858;53.190;8.596;2023-05-14T05:55:59;10.70;;;9.60;;
1721;SDS011;858;53.190;8.596;2023-05-14T05:58:25;14.83;;;11.40;;
1721;SDS011;858;53.190;8.596;2023-05-14T06:00:51;12.47;;;11.20;;
1721;SDS011;858;53.190;8.596;2023-05-14T06:03:19;11.93;;;10.40;;
1721;SDS011;858;53.190;8.596;2023-05-14T06:05:46;12.03;;;10.93;;
1721;SDS011;858;53.190;8.596;2023-05-14T06:08:13;16.00;;;11.03;;
1721;SDS011;858;53.190;8.596;2023-05-14T06:10:40;13.47;;;10.60;;
1721;SDS011;858;53.190;8.596;2023-05-14T06:13:07;13.33;;;11.97;;
1721;SDS011;858;53.190;8.596;2023-05-14T06:15:34;13.47;;;11.80;;
1721;SDS011;858;53.190;8.596;2023-05-14T06:18:01;12.13;;;10.90;;
1721;SDS011;858;53.190;8.596;2023-05-14T06:20:27;12.53;;;11.33;;
1721;SDS011;858;53.190;8.596;2023-05-14T06:22:53;12.67;;;11.37;;
1721;SDS011;858;53.190;8.596;2023-05-14T06:25:20;11.77;;;10.57;;
1721;SDS011;858;53.190;8.596;2023-05-14T06:27:46;13.23;;;11.90;;
1721;SDS011;858;53.190;8.596;2023-05-14T06:30:14;13.90;;;11.50;;
1721;SDS011;858;53.190;8.596;2023-05-14T06:32:40;16.13;;;10.90;;
1721;SDS011;858;53.190;8.596;2023-05-14T06:35:07;13.80;;;11.50;;
1721;SDS011;858;53.190;8.596;2023-05-14T06:37:34;11.93;;;10.73;;
1721;SDS011;858;53.190;8.596;2023-05-14T06:40:00;12.20;;;10.47;;
1721;SDS011;858;53.190;8.596;2023-05-14T06:42:27;12.57;;;11.27;;
1721;SDS011;858;53.190;8.596;2023-05-14T06:44:54;15.63;;;11.20;;
1721;SDS011;858;53.190;8.596;2023-05-14T06:47:21;14.13;;;11.00;;
1721;SDS011;858;53.190;8.596;2023-05-14T06:49:47;13.30;;;10.77;;
1721;SDS011;858;53.190;8.596;2023-05-14T06:52:14;12.50;;;11.10;;
1721;SDS011;858;53.190;8.596;2023-05-14T06:54:41;12.00;;;10.80;;
1721;SDS011;858;53.190;8.596;2023-05-14T06:57:08;12.50;;;11.30;;
1721;SDS011;858;53.190;8.596;2023-05-14T06:59:34;13.20;;;11.60;;
1721;SDS011;858;53.190;8.596;2023-05-14T07:02:00;13.40;;;11.20;;
1721;SDS011;858;53.190;8.596;2023-05-14T07:04:28;12.80;;;10.77;;
1721;SDS011;858;53.190;8.596;2023-05-14T07:06:55;19.77;;;12.30;;
1721;SDS011;858;53.190;8.596;2023-05-14T07:09:21;13.27;;;11.87;;
1721;SDS011;858;53.190;8.596;2023-05-14T07:11:47;13.00;;;10.53;;
1721;SDS011;858;53.190;8.596;2023-05-14T07:14:14;12.77;;;11.40;;
1721;SDS011;858;53.190;8.596;2023-05-14T07:16:40;13.23;;;11.30;;
1721;SDS011;858;53.190;8.596;2023-05-14T07:19:07;14.77;;;11.03;;
1721;SDS011;858;53.190;8.596;2023-05-14T07:21:34;13.33;;;11.20;;
1721;SDS011;858;53.190;8.596;2023-05-14T07:24:01;17.93;;;12.47;;
1721;SDS011;858;53.190;8.596;2023-05-14T07:26:27;13.87;;;10.33;;
1721;SDS011;858;53.190;8.596;2023-05-14T07:28:54;13.10;;;10.50;;
1721;SDS011;858;53.190;8.596;2023-05-14T07:31:21;14.40;;;10.80;;
1721;SDS011;858;53.190;8.596;2023-05-14T07:33:47;13.27;;;10.10;;
1721;SDS011;858;53.190;8.596;2023-05-14T07:36:13;12.13;;;10.83;;
1721;SDS011;858;53.190;8.596;2023-05-14T07:38:41;14.00;;;10.97;;
1721;SDS011;858;53.190;8.596;2023-05-14T07:41:08;13.00;;;9.77;;
1721;SDS011;858;53.190;8.596;2023-05-14T07:43:35;13.40;;;10.60;;
1721;SDS011;858;53.190;8.596;2023-05-14T07:46:02;17.50;;;10.60;;
1721;SDS011;858;53.190;8.596;2023-05-14T07:48:29;15.20;;;11.13;;
1721;SDS011;858;53.190;8.596;2023-05-14T07:50:55;16.97;;;11.40;;
1721;SDS011;858;53.190;8.596;2023-05-14T07:53:21;16.07;;;11.97;;
1721;SDS011;858;53.190;8.596;2023-05-14T07:55:50;15.03;;;10.87;;
1721;SDS011;858;53.190;8.596;2023-05-14T07:58:16;15.73;;;10.27;;
1721;SDS011;858;53.190;8.596;2023-05-14T08:00:43;20.77;;;11.70;;
1721;SDS011;858;53.190;8.596;2023-05-14T08:03:09;15.23;;;11.30;;
1721;SDS011;858;53.190;8.596;2023-05-14T08:05:35;13.17;;;11.80;;
1721;SDS011;858;53.190;8.596;2023-05-14T08:08:02;12.07;;;10.83;;
1721;SDS011;858;53.190;8.596;2023-05-14T08:10:28;14.53;;;11.23;;
1721;SDS011;858;53.190;8.596;2023-05-14T08:12:57;18.10;;;11.50;;
1721;SDS011;858;53.190;8.596;2023-05-14T08:15:24;14.30;;;9.83;;
1721;SDS011;858;53.190;8.596;2023-05-14T08:17:51;10.97;;;9.80;;
1721;SDS011;858;53.190;8.596;2023-05-14T08:20:18;14.50;;;9.90;;
1721;SDS011;858;53.190;8.596;2023-05-14T08:22:44;10.80;;;9.07;;
1721;SDS011;858;53.190;8.596;2023-05-14T08:25:11;11.37;;;10.03;;
1721;SDS011;858;53.190;8.596;2023-05-14T08:27:37;11.20;;;9.27;;
1721;SDS011;858;53.190;8.596;2023-05-14T08:30:06;12.53;;;10.00;;
1721;SDS011;858;53.190;8.596;2023-05-14T08:32:33;10.20;;;8.27;;
1721;SDS011;858;53.190;8.596;2023-05-14T08:34:59;9.00;;;8.10;;
1721;SDS011;858;53.190;8.596;2023-05-14T08:37:25;13.23;;;7.87;;
1721;SDS011;858;53.190;8.596;2023-05-14T08:39:51;10.30;;;8.30;;
1721;SDS011;858;53.190;8.596;2023-05-14T08:42:19;12.30;;;9.10;;
1721;SDS011;858;53.190;8.596;2023-05-14T08:44:46;9.27;;;8.27;;
1721;SDS011;858;53.190;8.596;2023-05-14T08:47:16;10.47;;;7.63;;
1721;SDS011;858;53.190;8.596;2023-05-14T08:49:45;7.57;;;6.87;;
1721;SDS011;858;53.190;8.596;2023-05-14T08:52:12;7.07;;;6.40;;
1721;SDS011;858;53.190;8.596;2023-05-14T08:54:38;8.63;;;6.17;;
1721;SDS011;858;53.190;8.596;2023-05-14T08:57:05;7.87;;;6.07;;
1721;SDS011;858;53.190;8.596;2023-05-14T08:59:34;7.63;;;6.17;;
1721;SDS011;858;53.190;8.596;2023-05-14T09:02:01;6.43;;;5.80;;
1721;SDS011;858;53.190;8.596;2023-05-14T09:04:30;6.33;;;5.50;;
1721;SDS011;858;53.190;8.596;2023-05-14T09:06:57;6.37;;;5.77;;
1721;SDS011;858;53.190;8.596;2023-05-14T09:09:24;6.60;;;5.53;;
1721;SDS011;858;53.190;8.596;2023-05-14T09:11:52;6.77;;;5.70;;
1721;SDS011;858;53.190;8.596;2023-05-14T09:14:18;8.20;;;5.50;;
1721;SDS011;858;53.190;8.596;2023-05-14T09:16:45;5.80;;;5.30;;
1721;SDS011;858;53.190;8.596;2023-05-14T09:19:12;6.40;;;5.43;;
1721;SDS011;858;53.190;8.596;2023-05-14T09:21:41;9.03;;;5.10;;
1721;SDS011;858;53.190;8.596;2023-05-14T09:24:07;5.10;;;4.70;;
1721;SDS011;858;53.190;8.596;2023-05-14T09:26:34;5.50;;;5.10;;
1721;SDS011;858;53.190;8.596;2023-05-14T09:29:00;8.50;;;5.70;;
1721;SDS011;858;53.190;8.596;2023-05-14T09:31:28;6.30;;;5.70;;
1721;SDS011;858;53.190;8.596;2023-05-14T09:33:55;7.27;;;6.57;;
1721;SDS011;858;53.190;8.596;2023-05-14T09:36:22;6.90;;;5.50;;
1721;SDS011;858;53.190;8.596;2023-05-14T09:38:50;6.10;;;5.50;;
1721;SDS011;858;53.190;8.596;2023-05-14T09:41:24;5.90;;;5.30;;
1721;SDS011;858;53.190;8.596;2023-05-14T09:43:51;7.43;;;5.77;;
1721;SDS011;858;53.190;8.596;2023-05-14T09:46:18;7.13;;;6.43;;
1721;SDS011;858;53.190;8.596;2023-05-14T09:48:45;6.17;;;5.27;;
1721;SDS011;858;53.190;8.596;2023-05-14T09:51:12;7.10;;;5.70;;
1721;SDS011;858;53.190;8.596;2023-05-14T09:53:38;5.90;;;5.40;;
1721;SDS011;858;53.190;8.596;2023-05-14T09:56:05;5.73;;;5.23;;
1721;SDS011;858;53.190;8.596;2023-05-14T09:58:33;8.23;;;5.53;;
1721;SDS011;858;53.190;8.596;2023-05-14T10:00:59;7.97;;;5.13;;
1721;SDS011;858;53.190;8.596;2023-05-14T10:03:26;6.00;;;5.47;;
1721;SDS011;858;53.190;8.596;2023-05-14T10:05:54;7.10;;;6.10;;
1721;SDS011;858;53.190;8.596;2023-05-14T10:08:23;7.70;;;5.43;;
1721;SDS011;858;53.190;8.596;2023-05-14T10:10:50;7.63;;;5.10;;
1721;SDS011;858;53.190;8.596;2023-05-14T10:13:19;7.20;;;5.60;;
1721;SDS011;858;53.190;8.596;2023-05-14T10:15:48;7.20;;;5.10;;
1721;SDS011;858;53.190;8.596;2023-05-14T10:18:15;5.93;;;5.33;;
1721;SDS011;858;53.190;8.596;2023-05-14T10:20:42;7.93;;;5.03;;
1721;SDS011;858;53.190;8.596;2023-05-14T10:23:10;6.93;;;4.93;;
1721;SDS011;858;53.190;8.596;2023-05-14T10:25:36;5.93;;;5.30;;
1721;SDS011;858;53.190;8.596;2023-05-14T10:28:03;6.23;;;4.80;;
1721;SDS011;858;53.190;8.596;2023-05-14T10:30:31;7.20;;;5.17;;
1721;SDS011;858;53.190;8.596;2023-05-14T10:33:08;5.87;;;5.20;;
1721;SDS011;858;53.190;8.596;2023-05-14T10:35:51;5.33;;;4.70;;
1721;SDS011;858;53.190;8.596;2023-05-14T10:38:21;5.20;;;4.70;;
1721;SDS011;858;53.190;8.596;2023-05-14T10:40:47;7.17;;;5.80;;
1721;SDS011;858;53.190;8.596;2023-05-14T10:43:14;6.63;;;5.50;;
1721;SDS011;858;53.190;8.596;2023-05-14T10:45:42;5.90;;;5.30;;
1721;SDS011;858;53.190;8.596;2023-05-14T10:48:10;7.47;;;5.53;;
1721;SDS011;858;53.190;8.596;2023-05-14T10:50:36;9.33;;;5.53;;
1721;SDS011;858;53.190;8.596;2023-05-14T10:53:03;5.53;;;5.03;;
1721;SDS011;858;53.190;8.596;2023-05-14T10:55:30;10.60;;;5.47;;
1721;SDS011;858;53.190;8.596;2023-05-14T10:57:57;5.80;;;5.30;;
1721;SDS011;858;53.190;8.596;2023-05-14T11:00:25;7.10;;;4.93;;
1721;SDS011;858;53.190;8.596;2023-05-14T11:02:53;9.67;;;5.20;;
1721;SDS011;858;53.190;8.596;2023-05-14T11:05:22;5.10;;;4.60;;
1721;SDS011;858;53.190;8.596;2023-05-14T11:07:51;5.93;;;5.43;;
1721;SDS011;858;53.190;8.596;2023-05-14T11:10:20;6.80;;;5.00;;
1721;SDS011;858;53.190;8.596;2023-05-14T11:12:48;5.20;;;4.80;;
1721;SDS011;858;53.190;8.596;2023-05-14T11:15:15;5.13;;;4.60;;
1721;SDS011;858;53.190;8.596;2023-05-14T11:17:42;5.63;;;4.57;;
1721;SDS011;858;53.190;8.596;2023-05-14T11:20:10;6.00;;;5.50;;
1721;SDS011;858;53.190;8.596;2023-05-14T11:22:39;5.90;;;5.30;;
1721;SDS011;858;53.190;8.596;2023-05-14T11:25:06;5.80;;;5.17;;
1721;SDS011;858;53.190;8.596;2023-05-14T11:27:33;7.23;;;5.37;;
1721;SDS011;858;53.190;8.596;2023-05-14T11:29:59;5.33;;;4.77;;
1721;SDS011;858;53.190;8.596;2023-05-14T11:32:26;6.73;;;4.90;;
1721;SDS011;858;53.190;8.596;2023-05-14T11:34:52;5.50;;;5.00;;
1721;SDS011;858;53.190;8.596;2023-05-14T11:37:19;4.93;;;4.50;;
1721;SDS011;858;53.190;8.596;2023-05-14T11:39:47;5.73;;;4.93;;
1721;SDS011;858;53.190;8.596;2023-05-14T11:42:14;5.77;;;5.17;;
1721;SDS011;858;53.190;8.596;2023-05-14T11:44:42;5.60;;;5.10;;
1721;SDS011;858;53.190;8.596;2023-05-14T11:47:10;4.50;;;4.20;;
1721;SDS011;858;53.190;8.596;2023-05-14T11:49:36;6.53;;;5.93;;
1721;SDS011;858;53.190;8.596;2023-05-14T11:52:03;9.00;;;4.90;;
1721;SDS011;858;53.190;8.596;2023-05-14T11:54:30;4.60;;;4.20;;
1721;SDS011;858;53.190;8.596;2023-05-14T11:56:58;7.17;;;5.40;;
1721;SDS011;858;53.190;8.596;2023-05-14T11:59:25;7.83;;;6.17;;
1721;SDS011;858;53.190;8.596;2023-05-14T12:01:52;5.30;;;4.90;;
1721;SDS011;858;53.190;8.596;2023-05-14T12:04:19;6.03;;;5.53;;
1721;SDS011;858;53.190;8.596;2023-05-14T12:06:46;5.40;;;4.90;;
1721;SDS011;858;53.190;8.596;2023-05-14T12:09:13;10.83;;;5.70;;
1721;SDS011;858;53.190;8.596;2023-05-14T12:11:41;6.47;;;5.87;;
1721;SDS011;858;53.190;8.596;2023-05-14T12:14:13;5.20;;;4.90;;
1721;SDS011;858;53.190;8.596;2023-05-14T12:16:39;7.40;;;4.77;;
1721;SDS011;858;53.190;8.596;2023-05-14T12:19:07;6.23;;;5.73;;
1721;SDS011;858;53.190;8.596;2023-05-14T12:21:33;7.30;;;5.57;;
1721;SDS011;858;53.190;8.596;2023-05-14T12:24:00;15.83;;;5.10;;
1721;SDS011;858;53.190;8.596;2023-05-14T12:26:27;4.60;;;4.20;;
1721;SDS011;858;53.190;8.596;2023-05-14T12:28:55;5.23;;;4.73;;
1721;SDS011;858;53.190;8.596;2023-05-14T12:31:27;5.80;;;5.30;;
1721;SDS011;858;53.190;8.596;2023-05-14T12:33:54;5.10;;;4.70;;
1721;SDS011;858;53.190;8.596;2023-05-14T12:36:20;5.93;;;5.43;;
1721;SDS011;858;53.190;8.596;2023-05-14T12:38:47;6.23;;;5.00;;
1721;SDS011;858;53.190;8.596;2023-05-14T12:41:14;5.73;;;4.53;;
1721;SDS011;858;53.190;8.596;2023-05-14T12:43:41;6.57;;;5.77;;
1721;SDS011;858;53.190;8.596;2023-05-14T12:46:08;8.20;;;4.97;;
1721;SDS011;858;53.190;8.596;2023-05-14T12:48:36;5.83;;;4.00;;
1721;SDS011;858;53.190;8.596;2023-05-14T12:51:02;4.60;;;4.30;;
1721;SDS011;858;53.190;8.596;2023-05-14T12:53:28;5.00;;;4.50;;
1721;SDS011;858;53.190;8.596;2023-05-14T12:55:55;4.80;;;4.50;;
1721;SDS011;858;53.190;8.596;2023-05-14T12:58:21;5.67;;;5.17;;
1721;SDS011;858;53.190;8.596;2023-05-14T13:00:48;4.77;;;4.37;;
1721;SDS011;858;53.190;8.596;2023-05-14T13:03:14;4.80;;;4.40;;
1721;SDS011;858;53.190;8.596;2023-05-14T13:05:42;4.90;;;4.57;;
1721;SDS011;858;53.190;8.596;2023-05-14T13:08:08;4.73;;;4.33;;
1721;SDS011;858;53.190;8.596;2023-05-14T13:10:35;5.17;;;4.67;;
1721;SDS011;858;53.190;8.596;2023-05-14T13:13:01;6.60;;;5.00;;
1721;SDS011;858;53.190;8.596;2023-05-14T13:15:27;4.53;;;4.23;;
1721;SDS011;858;53.190;8.596;2023-05-14T13:17:55;5.13;;;4.63;;
1721;SDS011;858;53.190;8.596;2023-05-14T13:20:21;4.97;;;4.57;;
1721;SDS011;858;53.190;8.596;2023-05-14T13:22:51;5.47;;;4.97;;
1721;SDS011;858;53.190;8.596;2023-05-14T13:25:17;4.87;;;4.40;;
1721;SDS011;858;53.190;8.596;2023-05-14T13:27:43;5.70;;;4.80;;
1721;SDS011;858;53.190;8.596;2023-05-14T13:30:10;5.40;;;4.90;;
1721;SDS011;858;53.190;8.596;2023-05-14T13:32:36;6.03;;;4.70;;
1721;SDS011;858;53.190;8.596;2023-05-14T13:35:03;4.70;;;4.30;;
1721;SDS011;858;53.190;8.596;2023-05-14T13:37:29;5.13;;;4.50;;
1721;SDS011;858;53.190;8.596;2023-05-14T13:39:57;5.17;;;4.77;;
1721;SDS011;858;53.190;8.596;2023-05-14T13:42:23;5.00;;;4.67;;
1721;SDS011;858;53.190;8.596;2023-05-14T13:44:51;4.30;;;4.00;;
1721;SDS011;858;53.190;8.596;2023-05-14T13:47:17;5.07;;;4.60;;
1721;SDS011;858;53.190;8.596;2023-05-14T13:49:43;6.10;;;5.50;;
1721;SDS011;858;53.190;8.596;2023-05-14T13:52:09;4.73;;;4.43;;
1721;SDS011;858;53.190;8.596;2023-05-14T13:54:36;9.30;;;5.20;;
1721;SDS011;858;53.190;8.596;2023-05-14T13:57:04;4.90;;;4.50;;
1721;SDS011;858;53.190;8.596;2023-05-14T13:59:30;4.90;;;4.30;;
1721;SDS011;858;53.190;8.596;2023-05-14T14:01:56;7.30;;;4.80;;
1721;SDS011;858;53.190;8.596;2023-05-14T14:04:23;5.40;;;4.50;;
1721;SDS011;858;53.190;8.596;2023-05-14T14:06:52;6.17;;;4.80;;
1721;SDS011;858;53.190;8.596;2023-05-14T14:09:19;5.90;;;5.47;;
1721;SDS011;858;53.190;8.596;2023-05-14T14:11:45;5.60;;;5.03;;
1721;SDS011;858;53.190;8.596;2023-05-14T14:14:13;5.73;;;5.03;;
1721;SDS011;858;53.190;8.596;2023-05-14T14:16:40;6.37;;;5.87;;
1721;SDS011;858;53.190;8.596;2023-05-14T14:19:06;5.70;;;5.20;;
1721;SDS011;858;53.190;8.596;2023-05-14T14:21:32;4.90;;;4.50;;
1721;SDS011;858;53.190;8.596;2023-05-14T14:23:59;5.70;;;5.20;;
1721;SDS011;858;53.190;8.596;2023-05-14T14:26:25;4.93;;;4.53;;
1721;SDS011;858;53.190;8.596;2023-05-14T14:28:53;5.20;;;4.80;;
1721;SDS011;858;53.190;8.596;2023-05-14T14:31:21;5.90;;;5.40;;
1721;SDS011;858;53.190;8.596;2023-05-14T14:33:47;6.50;;;5.53;;
1721;SDS011;858;53.190;8.596;2023-05-14T14:36:13;5.20;;;4.70;;
1721;SDS011;858;53.190;8.596;2023-05-14T14:38:39;5.97;;;5.40;;
1721;SDS011;858;53.190;8.596;2023-05-14T14:41:06;5.00;;;4.60;;
1721;SDS011;858;53.190;8.596;2023-05-14T14:43:34;4.80;;;4.40;;
1721;SDS011;858;53.190;8.596;2023-05-14T14:46:00;5.17;;;4.73;;
1721;SDS011;858;53.190;8.596;2023-05-14T14:48:30;5.17;;;4.70;;
1721;SDS011;858;53.190;8.596;2023-05-14T14:50:58;5.43;;;5.03;;
1721;SDS011;858;53.190;8.596;2023-05-14T14:53:25;5.33;;;4.60;;
1721;SDS011;858;53.190;8.596;2023-05-14T14:55:51;5.40;;;4.90;;
1721;SDS011;858;53.190;8.596;2023-05-14T14:58:18;5.50;;;5.00;;
1721;SDS011;858;53.190;8.596;2023-05-14T15:00:45;7.10;;;5.10;;
1721;SDS011;858;53.190;8.596;2023-05-14T15:03:11;7.50;;;6.20;;
1721;SDS011;858;53.190;8.596;2023-05-14T15:05:41;5.07;;;4.60;;
1721;SDS011;858;53.190;8.596;2023-05-14T15:08:07;5.40;;;4.90;;
1721;SDS011;858;53.190;8.596;2023-05-14T15:10:34;5.87;;;5.00;;
1721;SDS011;858;53.190;8.596;2023-05-14T15:13:02;5.80;;;5.30;;
1721;SDS011;858;53.190;8.596;2023-05-14T15:15:28;5.83;;;4.90;;